sensor_id;sensor_type;location;lat;lon;timestamp;pressure;altitude;pressure_sealevel;temperature;humidity
42335;BME280;27986;42.700;24.178;2023-02-12T00:01:38;94684.16;;;-2.00;60.58
42335;BME280;27986;42.700;24.178;2023-02-12T00:04:04;94675.16;;;-2.04;59.75
42335;BME280;27986;42.700;24.178;2023-02-12T00:06:29;94678.69;;;-2.04;60.07
42335;BME280;27986;42.700;24.178;2023-02-12T00:08:56;94671.34;;;-1.90;59.87
42335;BME280;27986;42.700;24.178;2023-02-12T00:11:24;94661.09;;;-1.74;59.96
42335;BME280;27986;42.700;24.178;2023-02-12T00:13:50;94668.22;;;-1.56;59.74
42335;BME280;27986;42.700;24.178;2023-02-12T00:16:19;94663.31;;;-1.49;59.47
42335;BME280;27986;42.700;24.178;2023-02-12T00:18:45;94641.16;;;-1.65;59.06
42335;BME280;27986;42.700;24.178;2023-02-12T00:21:11;94674.41;;;-1.32;58.93
42335;BME280;27986;42.700;24.178;2023-02-12T00:23:39;94668.03;;;-1.65;58.56
42335;BME280;27986;42.700;24.178;2023-02-12T00:26:13;94683.94;;;-1.89;60.63
42335;BME280;27986;42.700;24.178;2023-02-12T00:28:40;94662.38;;;-1.78;59.81
42335;BME280;27986;42.700;24.178;2023-02-12T00:31:17;94684.53;;;-1.62;59.87
42335;BME280;27986;42.700;24.178;2023-02-12T00:33:42;94666.81;;;-1.64;59.52
42335;BME280;27986;42.700;24.178;2023-02-12T00:36:13;94677.78;;;-1.61;59.87
42335;BME280;27986;42.700;24.178;2023-02-12T00:38:39;94662.38;;;-1.42;58.88
42335;BME280;27986;42.700;24.178;2023-02-12T00:41:05;94661.13;;;-1.57;60.07
42335;BME280;27986;42.700;24.178;2023-02-12T00:43:30;94669.97;;;-1.46;60.19
42335;BME280;27986;42.700;24.178;2023-02-12T00:45:55;94680.03;;;-1.72;60.60
42335;BME280;27986;42.700;24.178;2023-02-12T00:48:21;94669.56;;;-2.20;62.87
42335;BME280;27986;42.700;24.178;2023-02-12T00:50:47;94655.47;;;-2.06;62.54
42335;BME280;27986;42.700;24.178;2023-02-12T00:53:14;94654.13;;;-2.38;63.54
42335;BME280;27986;42.700;24.178;2023-02-12T00:55:39;94643.47;;;-2.79;65.14
42335;BME280;27986;42.700;24.178;2023-02-12T00:58:05;94648.22;;;-3.03;66.31
42335;BME280;27986;42.700;24.178;2023-02-12T01:00:31;94643.13;;;-3.04;66.24
42335;BME280;27986;42.700;24.178;2023-02-12T01:02:57;94654.25;;;-2.85;65.64
42335;BME280;27986;42.700;24.178;2023-02-12T01:05:22;94649.72;;;-2.75;65.70
42335;BME280;27986;42.700;24.178;2023-02-12T01:07:49;94656.25;;;-2.65;65.61
42335;BME280;27986;42.700;24.178;2023-02-12T01:10:15;94627.09;;;-2.46;64.41
42335;BME280;27986;42.700;24.178;2023-02-12T01:12:41;94627.50;;;-2.68;64.88
42335;BME280;27986;42.700;24.178;2023-02-12T01:15:07;94630.75;;;-2.53;64.64
42335;BME280;27986;42.700;24.178;2023-02-12T01:17:35;94633.25;;;-2.39;63.96
42335;BME280;27986;42.700;24.178;2023-02-12T01:20:00;94633.59;;;-2.17;63.73
42335;BME280;27986;42.700;24.178;2023-02-12T01:22:26;94633.59;;;-1.81;62.27
42335;BME280;27986;42.700;24.178;2023-02-12T01:24:51;94647.59;;;-1.88;61.82
42335;BME280;27986;42.700;24.178;2023-02-12T01:27:17;94609.78;;;-2.11;62.74
42335;BME280;27986;42.700;24.178;2023-02-12T01:29:42;94609.50;;;-1.80;62.15
42335;BME280;27986;42.700;24.178;2023-02-12T01:32:11;94625.03;;;-2.22;62.64
42335;BME280;27986;42.700;24.178;2023-02-12T01:34:37;94604.75;;;-2.16;62.43
42335;BME280;27986;42.700;24.178;2023-02-12T01:37:03;94592.22;;;-2.20;62.19
42335;BME280;27986;42.700;24.178;2023-02-12T01:39:28;94604.28;;;-1.94;62.05
42335;BME280;27986;42.700;24.178;2023-02-12T01:41:54;94580.09;;;-2.07;62.15
42335;BME280;27986;42.700;24.178;2023-02-12T01:44:21;94594.41;;;-2.12;61.30
42335;BME280;27986;42.700;24.178;2023-02-12T01:47:17;94594.09;;;-2.73;64.29
42335;BME280;27986;42.700;24.178;2023-02-12T01:49:45;94575.25;;;-2.78;65.08
42335;BME280;27986;42.700;24.178;2023-02-12T01:52:26;94570.16;;;-2.80;65.00
42335;BME280;27986;42.700;24.178;2023-02-12T01:54:53;94584.44;;;-3.05;66.60
42335;BME280;27986;42.700;24.178;2023-02-12T01:57:20;94561.59;;;-3.05;67.07
42335;BME280;27986;42.700;24.178;2023-02-12T01:59:49;94562.38;;;-3.05;67.17
42335;BME280;27986;42.700;24.178;2023-02-12T02:02:17;94536.72;;;-3.02;65.98
42335;BME280;27986;42.700;24.178;2023-02-12T02:04:46;94565.50;;;-2.83;65.09
42335;BME280;27986;42.700;24.178;2023-02-12T02:07:13;94565.34;;;-2.96;65.97
42335;BME280;27986;42.700;24.178;2023-02-12T02:09:39;94571.44;;;-2.85;66.41
42335;BME280;27986;42.700;24.178;2023-02-12T02:12:05;94549.78;;;-2.86;65.72
42335;BME280;27986;42.700;24.178;2023-02-12T02:14:51;94531.19;;;-2.82;64.72
42335;BME280;27986;42.700;24.178;2023-02-12T02:32:17;94526.50;;;-1.77;58.27
42335;BME280;27986;42.700;24.178;2023-02-12T02:34:54;94524.00;;;-1.71;58.53
42335;BME280;27986;42.700;24.178;2023-02-12T02:37:38;94533.00;;;-1.83;59.07
42335;BME280;27986;42.700;24.178;2023-02-12T02:42:55;94505.88;;;-2.41;61.57
42335;BME280;27986;42.700;24.178;2023-02-12T02:45:30;94536.34;;;-2.28;61.58
42335;BME280;27986;42.700;24.178;2023-02-12T02:48:09;94516.91;;;-2.41;62.33
42335;BME280;27986;42.700;24.178;2023-02-12T02:50:40;94504.81;;;-2.47;63.47
42335;BME280;27986;42.700;24.178;2023-02-12T02:53:17;94537.91;;;-2.27;61.75
42335;BME280;27986;42.700;24.178;2023-02-12T02:55:50;94507.91;;;-2.45;62.45
42335;BME280;27986;42.700;24.178;2023-02-12T02:58:24;94518.22;;;-2.29;61.46
42335;BME280;27986;42.700;24.178;2023-02-12T03:00:57;94510.94;;;-2.03;60.07
42335;BME280;27986;42.700;24.178;2023-02-12T03:06:26;94516.00;;;-1.36;56.89
42335;BME280;27986;42.700;24.178;2023-02-12T03:09:03;94506.66;;;-0.68;53.76
42335;BME280;27986;42.700;24.178;2023-02-12T03:11:32;94499.66;;;-0.31;51.89
42335;BME280;27986;42.700;24.178;2023-02-12T03:16:52;94490.69;;;0.03;50.02
42335;BME280;27986;42.700;24.178;2023-02-12T03:19:22;94517.19;;;0.04;49.82
42335;BME280;27986;42.700;24.178;2023-02-12T03:21:55;94477.59;;;-0.09;51.69
42335;BME280;27986;42.700;24.178;2023-02-12T03:24:35;94500.66;;;0.13;50.49
42335;BME280;27986;42.700;24.178;2023-02-12T03:27:20;94474.03;;;0.28;48.78
42335;BME280;27986;42.700;24.178;2023-02-12T03:29:47;94505.66;;;0.44;48.81
42335;BME280;27986;42.700;24.178;2023-02-12T03:35:18;94503.00;;;-0.11;51.40
42335;BME280;27986;42.700;24.178;2023-02-12T03:40:19;94471.19;;;-0.06;50.41
42335;BME280;27986;42.700;24.178;2023-02-12T03:53:01;94488.00;;;0.38;50.63
42335;BME280;27986;42.700;24.178;2023-02-12T03:55:26;94494.63;;;0.53;49.49
42335;BME280;27986;42.700;24.178;2023-02-12T03:57:56;94496.25;;;0.76;49.92
42335;BME280;27986;42.700;24.178;2023-02-12T04:00:25;94470.47;;;0.75;49.63
42335;BME280;27986;42.700;24.178;2023-02-12T04:02:52;94510.78;;;0.67;50.00
42335;BME280;27986;42.700;24.178;2023-02-12T04:05:24;94511.16;;;0.56;50.92
42335;BME280;27986;42.700;24.178;2023-02-12T04:07:50;94510.78;;;0.67;50.65
42335;BME280;27986;42.700;24.178;2023-02-12T04:10:17;94502.13;;;0.78;50.64
42335;BME280;27986;42.700;24.178;2023-02-12T04:12:56;94515.19;;;0.90;50.94
42335;BME280;27986;42.700;24.178;2023-02-12T04:20:40;94511.72;;;0.99;50.71
42335;BME280;27986;42.700;24.178;2023-02-12T04:31:12;94506.97;;;1.21;51.04
42335;BME280;27986;42.700;24.178;2023-02-12T04:33:57;94513.31;;;1.22;50.96
42335;BME280;27986;42.700;24.178;2023-02-12T04:36:32;94539.63;;;1.17;51.82
42335;BME280;27986;42.700;24.178;2023-02-12T04:39:02;94550.09;;;1.13;51.59
42335;BME280;27986;42.700;24.178;2023-02-12T04:41:30;94535.44;;;1.12;51.73
42335;BME280;27986;42.700;24.178;2023-02-12T04:43:55;94530.66;;;1.13;51.84
42335;BME280;27986;42.700;24.178;2023-02-12T04:46:21;94555.22;;;1.15;50.97
42335;BME280;27986;42.700;24.178;2023-02-12T04:48:54;94534.44;;;1.19;51.22
42335;BME280;27986;42.700;24.178;2023-02-12T04:51:20;94535.31;;;1.16;50.76
42335;BME280;27986;42.700;24.178;2023-02-12T04:53:46;94554.13;;;1.12;51.49
42335;BME280;27986;42.700;24.178;2023-02-12T04:56:13;94553.28;;;1.24;50.30
42335;BME280;27986;42.700;24.178;2023-02-12T04:58:39;94557.94;;;1.27;50.88
42335;BME280;27986;42.700;24.178;2023-02-12T05:01:06;94538.28;;;1.22;50.40
42335;BME280;27986;42.700;24.178;2023-02-12T05:03:31;94548.50;;;1.25;49.85
42335;BME280;27986;42.700;24.178;2023-02-12T05:06:07;94574.63;;;1.27;50.16
42335;BME280;27986;42.700;24.178;2023-02-12T05:08:33;94555.09;;;1.18;49.56
42335;BME280;27986;42.700;24.178;2023-02-12T05:11:04;94560.38;;;1.25;49.26
42335;BME280;27986;42.700;24.178;2023-02-12T05:13:29;94572.41;;;1.22;49.29
42335;BME280;27986;42.700;24.178;2023-02-12T05:15:55;94554.66;;;1.07;48.53
42335;BME280;27986;42.700;24.178;2023-02-12T05:18:20;94556.44;;;1.13;48.80
42335;BME280;27986;42.700;24.178;2023-02-12T05:20:54;94574.19;;;1.16;48.25
42335;BME280;27986;42.700;24.178;2023-02-12T05:23:20;94569.31;;;1.07;48.32
42335;BME280;27986;42.700;24.178;2023-02-12T05:25:45;94587.75;;;1.14;48.43
42335;BME280;27986;42.700;24.178;2023-02-12T05:28:10;94574.53;;;1.18;48.68
42335;BME280;27986;42.700;24.178;2023-02-12T05:30:36;94575.09;;;1.13;49.09
42335;BME280;27986;42.700;24.178;2023-02-12T05:33:02;94575.00;;;1.04;48.71
42335;BME280;27986;42.700;24.178;2023-02-12T05:35:27;94596.78;;;1.05;49.23
42335;BME280;27986;42.700;24.178;2023-02-12T05:37:53;94577.25;;;0.96;48.99
42335;BME280;27986;42.700;24.178;2023-02-12T05:40:18;94580.59;;;0.91;49.87
42335;BME280;27986;42.700;24.178;2023-02-12T05:42:44;94594.91;;;0.90;51.24
42335;BME280;27986;42.700;24.178;2023-02-12T05:45:09;94613.72;;;0.86;50.90
42335;BME280;27986;42.700;24.178;2023-02-12T05:47:34;94617.72;;;0.84;50.75
42335;BME280;27986;42.700;24.178;2023-02-12T05:50:00;94607.25;;;0.89;50.62
42335;BME280;27986;42.700;24.178;2023-02-12T05:52:25;94618.22;;;0.92;50.48
42335;BME280;27986;42.700;24.178;2023-02-12T05:54:51;94617.44;;;0.92;50.13
42335;BME280;27986;42.700;24.178;2023-02-12T05:57:16;94603.56;;;0.92;50.40
42335;BME280;27986;42.700;24.178;2023-02-12T05:59:42;94612.81;;;0.89;50.08
42335;BME280;27986;42.700;24.178;2023-02-12T06:02:07;94630.56;;;1.04;50.17
42335;BME280;27986;42.700;24.178;2023-02-12T06:04:32;94628.78;;;1.10;49.84
42335;BME280;27986;42.700;24.178;2023-02-12T06:06:58;94632.06;;;1.30;49.66
42335;BME280;27986;42.700;24.178;2023-02-12T06:09:24;94636.41;;;1.19;49.99
42335;BME280;27986;42.700;24.178;2023-02-12T06:11:50;94640.75;;;1.20;50.30
42335;BME280;27986;42.700;24.178;2023-02-12T06:14:17;94644.31;;;1.20;50.42
42335;BME280;27986;42.700;24.178;2023-02-12T06:16:45;94649.03;;;1.32;49.99
42335;BME280;27986;42.700;24.178;2023-02-12T06:19:11;94648.63;;;1.21;50.21
42335;BME280;27986;42.700;24.178;2023-02-12T06:21:36;94649.97;;;1.17;50.25
42335;BME280;27986;42.700;24.178;2023-02-12T06:24:02;94653.00;;;1.09;50.75
42335;BME280;27986;42.700;24.178;2023-02-12T06:26:27;94647.63;;;1.28;50.94
42335;BME280;27986;42.700;24.178;2023-02-12T06:28:53;94632.50;;;1.16;50.66
42335;BME280;27986;42.700;24.178;2023-02-12T06:31:20;94647.94;;;1.30;50.74
42335;BME280;27986;42.700;24.178;2023-02-12T06:33:45;94646.31;;;1.07;51.10
42335;BME280;27986;42.700;24.178;2023-02-12T06:36:11;94639.09;;;1.09;51.94
42335;BME280;27986;42.700;24.178;2023-02-12T06:38:36;94644.84;;;1.28;51.73
42335;BME280;27986;42.700;24.178;2023-02-12T06:41:02;94660.28;;;1.29;51.61
42335;BME280;27986;42.700;24.178;2023-02-12T06:43:28;94650.53;;;1.11;51.63
42335;BME280;27986;42.700;24.178;2023-02-12T06:45:53;94659.28;;;1.23;51.38
42335;BME280;27986;42.700;24.178;2023-02-12T06:48:18;94662.53;;;1.21;51.27
42335;BME280;27986;42.700;24.178;2023-02-12T06:50:44;94633.56;;;0.97;51.49
42335;BME280;27986;42.700;24.178;2023-02-12T06:53:09;94661.44;;;0.93;51.90
42335;BME280;27986;42.700;24.178;2023-02-12T06:55:35;94651.00;;;0.97;51.22
42335;BME280;27986;42.700;24.178;2023-02-12T06:58:00;94661.09;;;1.04;51.26
42335;BME280;27986;42.700;24.178;2023-02-12T07:00:26;94639.66;;;1.04;51.14
42335;BME280;27986;42.700;24.178;2023-02-12T07:02:55;94673.50;;;1.25;51.58
42335;BME280;27986;42.700;24.178;2023-02-12T07:05:21;94656.88;;;1.12;52.34
42335;BME280;27986;42.700;24.178;2023-02-12T07:07:47;94669.16;;;1.24;52.36
42335;BME280;27986;42.700;24.178;2023-02-12T07:10:12;94677.50;;;1.36;52.41
42335;BME280;27986;42.700;24.178;2023-02-12T07:12:37;94681.41;;;1.26;52.80
42335;BME280;27986;42.700;24.178;2023-02-12T07:15:03;94652.97;;;1.22;52.60
42335;BME280;27986;42.700;24.178;2023-02-12T07:17:29;94669.16;;;1.36;52.50
42335;BME280;27986;42.700;24.178;2023-02-12T07:19:55;94664.75;;;1.26;53.03
42335;BME280;27986;42.700;24.178;2023-02-12T07:22:21;94668.84;;;1.09;54.01
42335;BME280;27986;42.700;24.178;2023-02-12T07:24:47;94664.00;;;0.62;54.35
42335;BME280;27986;42.700;24.178;2023-02-12T07:27:13;94671.94;;;0.22;56.34
42335;BME280;27986;42.700;24.178;2023-02-12T07:29:38;94680.69;;;0.20;57.59
42335;BME280;27986;42.700;24.178;2023-02-12T07:32:04;94665.59;;;0.09;58.40
42335;BME280;27986;42.700;24.178;2023-02-12T07:34:30;94677.03;;;0.11;58.74
42335;BME280;27986;42.700;24.178;2023-02-12T07:36:55;94664.72;;;0.12;58.83
42335;BME280;27986;42.700;24.178;2023-02-12T07:39:21;94679.69;;;0.14;58.34
42335;BME280;27986;42.700;24.178;2023-02-12T07:41:46;94658.97;;;-0.10;58.83
42335;BME280;27986;42.700;24.178;2023-02-12T07:44:11;94679.31;;;-0.30;59.78
42335;BME280;27986;42.700;24.178;2023-02-12T07:46:42;94671.94;;;-0.49;60.45
42335;BME280;27986;42.700;24.178;2023-02-12T07:49:12;94695.75;;;-0.22;61.49
42335;BME280;27986;42.700;24.178;2023-02-12T07:51:38;94667.47;;;-0.30;60.55
42335;BME280;27986;42.700;24.178;2023-02-12T07:54:04;94674.16;;;-0.15;60.81
42335;BME280;27986;42.700;24.178;2023-02-12T07:56:32;94674.06;;;-0.11;59.65
42335;BME280;27986;42.700;24.178;2023-02-12T07:59:12;94650.88;;;-0.17;59.61
42335;BME280;27986;42.700;24.178;2023-02-12T08:01:40;94686.56;;;0.10;59.72
42335;BME280;27986;42.700;24.178;2023-02-12T08:04:08;94694.41;;;0.53;57.78
42335;BME280;27986;42.700;24.178;2023-02-12T08:06:37;94686.09;;;0.78;56.48
42335;BME280;27986;42.700;24.178;2023-02-12T08:09:05;94696.31;;;0.94;54.64
42335;BME280;27986;42.700;24.178;2023-02-12T08:11:32;94641.34;;;0.89;54.92
42335;BME280;27986;42.700;24.178;2023-02-12T08:13:58;94690.06;;;1.16;53.80
42335;BME280;27986;42.700;24.178;2023-02-12T08:16:26;94689.53;;;1.08;54.72
42335;BME280;27986;42.700;24.178;2023-02-12T08:18:52;94697.94;;;1.17;54.46
42335;BME280;27986;42.700;24.178;2023-02-12T08:21:23;94704.50;;;1.23;53.51
42335;BME280;27986;42.700;24.178;2023-02-12T08:23:49;94680.41;;;1.20;53.89
42335;BME280;27986;42.700;24.178;2023-02-12T08:26:19;94681.59;;;1.32;53.94
42335;BME280;27986;42.700;24.178;2023-02-12T08:28:53;94664.16;;;1.31;53.38
42335;BME280;27986;42.700;24.178;2023-02-12T08:31:23;94677.28;;;1.31;52.73
42335;BME280;27986;42.700;24.178;2023-02-12T08:33:50;94689.25;;;1.40;52.48
42335;BME280;27986;42.700;24.178;2023-02-12T08:36:19;94696.44;;;1.51;52.28
42335;BME280;27986;42.700;24.178;2023-02-12T08:38:45;94710.19;;;1.67;51.92
42335;BME280;27986;42.700;24.178;2023-02-12T08:41:13;94688.50;;;1.75;51.19
42335;BME280;27986;42.700;24.178;2023-02-12T08:43:40;94704.03;;;1.85;50.60
42335;BME280;27986;42.700;24.178;2023-02-12T08:46:11;94690.19;;;1.59;51.20
42335;BME280;27986;42.700;24.178;2023-02-12T08:48:38;94721.41;;;1.76;50.58
42335;BME280;27986;42.700;24.178;2023-02-12T08:51:18;94728.09;;;1.79;51.40
42335;BME280;27986;42.700;24.178;2023-02-12T08:53:46;94742.22;;;1.72;50.78
42335;BME280;27986;42.700;24.178;2023-02-12T08:56:14;94717.19;;;1.72;51.34
42335;BME280;27986;42.700;24.178;2023-02-12T08:58:40;94728.53;;;1.77;50.90
42335;BME280;27986;42.700;24.178;2023-02-12T09:01:11;94716.59;;;1.89;50.95
42335;BME280;27986;42.700;24.178;2023-02-12T09:03:38;94717.44;;;1.99;50.36
42335;BME280;27986;42.700;24.178;2023-02-12T09:06:05;94732.09;;;2.12;50.70
42335;BME280;27986;42.700;24.178;2023-02-12T09:08:30;94728.78;;;2.26;50.81
42335;BME280;27986;42.700;24.178;2023-02-12T09:10:56;94731.13;;;2.28;50.49
42335;BME280;27986;42.700;24.178;2023-02-12T09:13:22;94705.22;;;2.18;49.89
42335;BME280;27986;42.700;24.178;2023-02-12T09:15:47;94706.63;;;2.01;50.82
42335;BME280;27986;42.700;24.178;2023-02-12T09:18:14;94727.03;;;2.20;50.75
42335;BME280;27986;42.700;24.178;2023-02-12T09:20:42;94731.91;;;2.29;49.99
42335;BME280;27986;42.700;24.178;2023-02-12T09:23:12;94726.25;;;2.41;50.14
42335;BME280;27986;42.700;24.178;2023-02-12T09:25:43;94730.16;;;2.44;49.85
42335;BME280;27986;42.700;24.178;2023-02-12T09:28:10;94738.28;;;2.60;50.12
42335;BME280;27986;42.700;24.178;2023-02-12T09:30:37;94733.72;;;2.44;49.83
42335;BME280;27986;42.700;24.178;2023-02-12T09:33:04;94725.38;;;2.44;49.71
42335;BME280;27986;42.700;24.178;2023-02-12T09:35:33;94719.84;;;2.53;49.90
42335;BME280;27986;42.700;24.178;2023-02-12T09:37:59;94719.34;;;2.77;49.84
42335;BME280;27986;42.700;24.178;2023-02-12T09:46:29;94745.41;;;3.14;47.52
42335;BME280;27986;42.700;24.178;2023-02-12T09:49:12;94739.75;;;3.36;47.32
42335;BME280;27986;42.700;24.178;2023-02-12T09:51:42;94742.13;;;3.06;47.78
42335;BME280;27986;42.700;24.178;2023-02-12T09:54:13;94755.13;;;2.78;48.05
42335;BME280;27986;42.700;24.178;2023-02-12T09:56:43;94748.69;;;2.69;49.31
42335;BME280;27986;42.700;24.178;2023-02-12T09:59:13;94746.34;;;2.36;50.45
42335;BME280;27986;42.700;24.178;2023-02-12T10:01:43;94751.38;;;2.50;50.25
42335;BME280;27986;42.700;24.178;2023-02-12T10:04:08;94754.88;;;2.64;50.63
42335;BME280;27986;42.700;24.178;2023-02-12T10:09:50;94745.69;;;2.85;49.17
42335;BME280;27986;42.700;24.178;2023-02-12T10:14:50;94756.03;;;3.06;48.21
42335;BME280;27986;42.700;24.178;2023-02-12T10:25:53;94763.91;;;2.99;47.87
42335;BME280;27986;42.700;24.178;2023-02-12T10:28:25;94753.09;;;3.10;48.59
42335;BME280;27986;42.700;24.178;2023-02-12T10:31:04;94750.88;;;3.36;48.28
42335;BME280;27986;42.700;24.178;2023-02-12T10:33:46;94746.72;;;3.31;47.67
42335;BME280;27986;42.700;24.178;2023-02-12T10:39:11;94738.41;;;3.09;47.78
42335;BME280;27986;42.700;24.178;2023-02-12T10:44:41;94730.44;;;3.30;47.59
42335;BME280;27986;42.700;24.178;2023-02-12T10:47:17;94737.75;;;3.36;47.59
42335;BME280;27986;42.700;24.178;2023-02-12T10:49:43;94749.25;;;3.48;47.97
42335;BME280;27986;42.700;24.178;2023-02-12T10:59:32;94741.69;;;3.66;47.58
42335;BME280;27986;42.700;24.178;2023-02-12T11:01:58;94725.25;;;3.50;47.40
42335;BME280;27986;42.700;24.178;2023-02-12T11:09:43;94738.72;;;3.52;47.53
42335;BME280;27986;42.700;24.178;2023-02-12T11:14:51;94751.66;;;3.95;46.84
42335;BME280;27986;42.700;24.178;2023-02-12T11:17:32;94754.59;;;3.73;46.44
42335;BME280;27986;42.700;24.178;2023-02-12T11:20:37;94743.94;;;3.90;46.44
42335;BME280;27986;42.700;24.178;2023-02-12T11:23:08;94751.81;;;3.91;47.13
42335;BME280;27986;42.700;24.178;2023-02-12T11:25:58;94742.56;;;4.40;47.72
42335;BME280;27986;42.700;24.178;2023-02-12T11:28:24;94729.81;;;4.67;44.88
42335;BME280;27986;42.700;24.178;2023-02-12T11:33:35;94749.00;;;5.44;43.62
42335;BME280;27986;42.700;24.178;2023-02-12T11:36:13;94749.06;;;5.68;42.58
42335;BME280;27986;42.700;24.178;2023-02-12T11:38:49;94748.16;;;5.95;42.23
42335;BME280;27986;42.700;24.178;2023-02-12T11:41:37;94744.78;;;6.14;40.99
42335;BME280;27986;42.700;24.178;2023-02-12T11:44:19;94749.25;;;5.97;41.22
42335;BME280;27986;42.700;24.178;2023-02-12T11:46:56;94756.28;;;5.83;41.22
42335;BME280;27986;42.700;24.178;2023-02-12T11:49:30;94752.44;;;6.05;40.72
42335;BME280;27986;42.700;24.178;2023-02-12T11:51:56;94742.69;;;6.00;41.04
42335;BME280;27986;42.700;24.178;2023-02-12T11:54:26;94742.31;;;5.50;41.61
42335;BME280;27986;42.700;24.178;2023-02-12T11:56:53;94730.53;;;5.37;42.08
42335;BME280;27986;42.700;24.178;2023-02-12T12:01:51;94753.69;;;5.37;42.53
42335;BME280;27986;42.700;24.178;2023-02-12T12:04:21;94760.00;;;4.96;44.18
42335;BME280;27986;42.700;24.178;2023-02-12T12:06:53;94757.06;;;4.99;43.81
42335;BME280;27986;42.700;24.178;2023-02-12T12:12:09;94753.28;;;5.30;43.02
42335;BME280;27986;42.700;24.178;2023-02-12T12:14:57;94755.56;;;5.41;43.21
42335;BME280;27986;42.700;24.178;2023-02-12T12:17:44;94745.88;;;5.51;42.97
42335;BME280;27986;42.700;24.178;2023-02-12T12:20:51;94757.13;;;5.32;43.40
42335;BME280;27986;42.700;24.178;2023-02-12T12:23:28;94756.78;;;4.97;45.09
42335;BME280;27986;42.700;24.178;2023-02-12T12:26:00;94769.53;;;5.41;44.61
42335;BME280;27986;42.700;24.178;2023-02-12T12:31:33;94766.91;;;5.70;43.46
42335;BME280;27986;42.700;24.178;2023-02-12T12:34:12;94776.78;;;5.56;42.96
42335;BME280;27986;42.700;24.178;2023-02-12T13:08:05;94770.91;;;6.11;41.28
42335;BME280;27986;42.700;24.178;2023-02-12T13:11:02;94773.94;;;6.46;41.41
42335;BME280;27986;42.700;24.178;2023-02-12T13:13:42;94789.09;;;6.78;41.46
42335;BME280;27986;42.700;24.178;2023-02-12T13:24:04;94784.41;;;6.99;39.63
42335;BME280;27986;42.700;24.178;2023-02-12T13:31:35;94808.00;;;6.69;41.21
42335;BME280;27986;42.700;24.178;2023-02-12T13:34:03;94806.31;;;6.47;40.74
42335;BME280;27986;42.700;24.178;2023-02-12T13:36:32;94798.50;;;6.52;40.29
42335;BME280;27986;42.700;24.178;2023-02-12T13:41:46;94790.94;;;6.82;40.03
42335;BME280;27986;42.700;24.178;2023-02-12T13:44:25;94794.56;;;7.12;39.17
42335;BME280;27986;42.700;24.178;2023-02-12T13:47:08;94799.81;;;7.48;39.37
42335;BME280;27986;42.700;24.178;2023-02-12T13:57:15;94809.56;;;7.38;39.76
42335;BME280;27986;42.700;24.178;2023-02-12T14:05:12;94829.63;;;6.92;40.02
42335;BME280;27986;42.700;24.178;2023-02-12T14:10:06;94822.84;;;6.84;41.08
42335;BME280;27986;42.700;24.178;2023-02-12T14:12:35;94829.28;;;6.75;41.01
42335;BME280;27986;42.700;24.178;2023-02-12T14:15:27;94843.19;;;6.70;41.32
42335;BME280;27986;42.700;24.178;2023-02-12T14:27:44;94858.81;;;6.62;41.39
42335;BME280;27986;42.700;24.178;2023-02-12T14:37:50;94879.16;;;5.72;44.10
42335;BME280;27986;42.700;24.178;2023-02-12T14:45:48;94890.28;;;5.39;44.78
42335;BME280;27986;42.700;24.178;2023-02-12T14:51:39;94899.38;;;5.67;44.40
42335;BME280;27986;42.700;24.178;2023-02-12T14:57:02;94918.75;;;5.80;44.62
42335;BME280;27986;42.700;24.178;2023-02-12T14:59:35;94905.03;;;5.40;44.37
42335;BME280;27986;42.700;24.178;2023-02-12T15:02:04;94924.59;;;5.40;45.34
42335;BME280;27986;42.700;24.178;2023-02-12T15:04:36;94943.84;;;5.56;45.27
42335;BME280;27986;42.700;24.178;2023-02-12T15:07:07;94929.56;;;5.26;44.20
42335;BME280;27986;42.700;24.178;2023-02-12T15:12:14;94955.97;;;5.34;44.02
42335;BME280;27986;42.700;24.178;2023-02-12T15:14:47;94956.28;;;5.36;45.16
42335;BME280;27986;42.700;24.178;2023-02-12T15:17:25;94970.13;;;5.49;45.91
42335;BME280;27986;42.700;24.178;2023-02-12T15:19:54;94972.44;;;5.42;44.88
42335;BME280;27986;42.700;24.178;2023-02-12T15:22:22;94968.88;;;5.50;45.29
42335;BME280;27986;42.700;24.178;2023-02-12T15:24:48;94959.72;;;5.22;45.38
42335;BME280;27986;42.700;24.178;2023-02-12T15:27:15;94948.22;;;5.02;44.72
42335;BME280;27986;42.700;24.178;2023-02-12T15:29:47;94959.69;;;4.95;45.86
42335;BME280;27986;42.700;24.178;2023-02-12T15:32:26;94996.97;;;5.10;47.33
42335;BME280;27986;42.700;24.178;2023-02-12T15:34:53;94991.84;;;4.90;45.92
42335;BME280;27986;42.700;24.178;2023-02-12T15:37:28;94990.91;;;5.02;46.17
42335;BME280;27986;42.700;24.178;2023-02-12T15:39:56;94989.84;;;5.18;47.03
42335;BME280;27986;42.700;24.178;2023-02-12T15:42:35;95008.16;;;5.28;47.02
42335;BME280;27986;42.700;24.178;2023-02-12T15:47:40;95015.75;;;5.00;47.00
42335;BME280;27986;42.700;24.178;2023-02-12T15:50:13;95025.06;;;4.97;47.12
42335;BME280;27986;42.700;24.178;2023-02-12T15:52:39;95025.88;;;5.07;46.68
42335;BME280;27986;42.700;24.178;2023-02-12T15:55:14;95027.56;;;5.04;46.84
42335;BME280;27986;42.700;24.178;2023-02-12T15:57:41;95036.41;;;5.03;46.67
42335;BME280;27986;42.700;24.178;2023-02-12T16:00:09;95041.34;;;4.90;46.46
42335;BME280;27986;42.700;24.178;2023-02-12T16:02:50;95045.66;;;4.72;46.62
42335;BME280;27986;42.700;24.178;2023-02-12T16:05:16;95057.47;;;4.45;47.75
42335;BME280;27986;42.700;24.178;2023-02-12T16:07:42;95052.16;;;4.29;48.40
42335;BME280;27986;42.700;24.178;2023-02-12T16:10:13;95060.59;;;4.47;48.06
42335;BME280;27986;42.700;24.178;2023-02-12T16:12:40;95070.84;;;4.50;48.21
42335;BME280;27986;42.700;24.178;2023-02-12T16:15:06;95055.47;;;4.15;49.83
42335;BME280;27986;42.700;24.178;2023-02-12T16:17:34;95078.91;;;4.17;50.49
42335;BME280;27986;42.700;24.178;2023-02-12T16:22:42;95096.75;;;4.51;50.77
42335;BME280;27986;42.700;24.178;2023-02-12T16:25:26;95096.50;;;4.58;51.28
42335;BME280;27986;42.700;24.178;2023-02-12T16:30:28;95111.69;;;4.57;50.64
42335;BME280;27986;42.700;24.178;2023-02-12T16:32:54;95117.69;;;4.46;50.36
42335;BME280;27986;42.700;24.178;2023-02-12T16:35:32;95123.66;;;4.36;50.94
42335;BME280;27986;42.700;24.178;2023-02-12T16:38:00;95129.59;;;4.16;51.78